createdAt,value
2022-08-05T00:02:07.583Z,100.00
2022-08-05T00:04:40.893Z,100.00
2022-08-05T00:07:27.490Z,100.00
2022-08-05T00:10:09.940Z,100.00
2022-08-05T00:12:55.953Z,100.00
2022-08-05T00:15:55.606Z,100.00
2022-08-05T00:18:23.027Z,100.00
2022-08-05T00:20:56.834Z,100.00
2022-08-05T00:23:44.650Z,100.00
2022-08-05T00:26:22.289Z,100.00
2022-08-05T00:28:55.814Z,100.00
2022-08-05T00:31:54.148Z,100.00
2022-08-05T00:34:54.817Z,100.00
2022-08-05T00:37:14.552Z,100.00
2022-08-05T00:39:58.435Z,100.00
2022-08-05T00:42:35.539Z,100.00
2022-08-05T00:45:11.532Z,100.00
2022-08-05T00:47:56.817Z,100.00
2022-08-05T00:50:42.074Z,100.00
2022-08-05T00:54:01.264Z,100.00
2022-08-05T00:56:11.156Z,100.00
2022-08-05T00:58:46.395Z,100.00
2022-08-05T01:01:24.691Z,100.00
2022-08-05T01:04:14.269Z,100.00
2022-08-05T01:06:51.780Z,100.00
2022-08-05T01:09:25.550Z,100.00
2022-08-05T01:12:18.013Z,100.00
2022-08-05T01:15:04.135Z,100.00
2022-08-05T01:17:43.939Z,100.00
2022-08-05T01:20:30.987Z,99.91
2022-08-05T01:23:20.066Z,99.10
2022-08-05T01:26:06.647Z,97.83
2022-08-05T01:28:47.989Z,98.10
2022-08-05T01:31:30.017Z,98.18
2022-08-05T01:34:09.038Z,97.73
2022-08-05T01:36:47.978Z,98.59
2022-08-05T01:39:36.846Z,99.85
2022-08-05T01:42:18.467Z,99.23
2022-08-05T01:44:56.521Z,98.74
2022-08-05T01:47:39.741Z,98.72
2022-08-05T01:50:28.686Z,99.00
2022-08-05T01:53:08.457Z,98.75
2022-08-05T01:55:46.588Z,98.44
2022-08-05T01:58:40.651Z,97.33
2022-08-05T02:01:25.331Z,97.85
2022-08-05T02:04:01.811Z,97.62
2022-08-05T02:06:38.318Z,98.05
2022-08-05T02:09:12.019Z,98.63
2022-08-05T02:11:55.939Z,98.63
2022-08-05T02:14:33.415Z,98.95
2022-08-05T02:17:29.686Z,98.40
2022-08-05T02:20:12.485Z,97.79
2022-08-05T02:22:49.170Z,98.10
2022-08-05T02:25:26.627Z,97.28
2022-08-05T02:28:08.919Z,96.75
2022-08-05T02:30:54.277Z,96.83
2022-08-05T02:33:38.226Z,97.38
2022-08-05T02:36:15.953Z,97.25
2022-08-05T02:38:53.623Z,98.62
2022-08-05T02:41:42.864Z,98.80
2022-08-05T02:44:25.321Z,98.27
2022-08-05T02:47:00.862Z,99.17
2022-08-05T02:49:40.365Z,100.00
2022-08-05T02:52:29.886Z,100.00
2022-08-05T02:55:05.546Z,100.00
2022-08-05T02:58:10.619Z,100.00
2022-08-05T03:00:38.330Z,100.00
2022-08-05T03:03:15.995Z,100.00
2022-08-05T03:06:53.880Z,100.00
2022-08-05T03:08:45.912Z,100.00
2022-08-05T03:11:57.149Z,100.00
2022-08-05T03:14:19.552Z,100.00
2022-08-05T03:16:53.477Z,100.00
2022-08-05T03:19:34.164Z,100.00
2022-08-05T03:22:16.813Z,100.00
2022-08-05T03:24:52.943Z,100.00
2022-08-05T03:27:29.593Z,100.00
2022-08-05T03:30:13.109Z,100.00
2022-08-05T03:32:46.340Z,100.00
2022-08-05T03:35:19.375Z,100.00
2022-08-05T03:37:55.151Z,100.00
2022-08-05T03:40:31.431Z,100.00
2022-08-05T03:43:59.083Z,100.00
2022-08-05T03:45:59.072Z,100.00
2022-08-05T03:48:35.708Z,100.00
2022-08-05T03:52:38.009Z,100.00
2022-08-05T03:55:53.611Z,100.00
2022-08-05T03:57:16.713Z,100.00
2022-08-05T03:59:56.656Z,100.00
2022-08-05T04:02:38.390Z,100.00
2022-08-05T04:05:18.760Z,100.00
2022-08-05T04:07:58.541Z,100.00
2022-08-05T04:10:38.129Z,100.00
2022-08-05T04:13:11.566Z,100.00
2022-08-05T04:16:02.849Z,100.00
2022-08-05T04:18:37.228Z,100.00
2022-08-05T04:21:13.000Z,100.00
2022-08-05T04:24:09.073Z,100.00
2022-08-05T04:26:48.604Z,100.00
2022-08-05T04:29:21.575Z,100.00
2022-08-05T04:31:56.926Z,100.00
2022-08-05T04:34:32.647Z,100.00
2022-08-05T04:37:07.189Z,100.00
2022-08-05T04:39:40.222Z,100.00
2022-08-05T04:42:14.757Z,100.00
2022-08-05T04:44:47.720Z,100.00
2022-08-05T04:47:20.819Z,100.00
2022-08-05T04:50:01.343Z,100.00
2022-08-05T04:52:36.256Z,100.00
2022-08-05T04:55:14.643Z,100.00
2022-08-05T04:57:51.558Z,100.00
2022-08-05T05:00:27.625Z,100.00
2022-08-05T05:03:04.031Z,100.00
2022-08-05T05:06:39.351Z,100.00
2022-08-05T05:08:31.252Z,100.00
2022-08-05T05:11:04.494Z,100.00
2022-08-05T05:13:43.318Z,100.00
2022-08-05T05:16:16.557Z,100.00
2022-08-05T05:19:17.788Z,100.00
2022-08-05T05:21:46.432Z,100.00
2022-08-05T05:24:21.629Z,100.00
2022-08-05T05:26:54.581Z,100.00
2022-08-05T05:30:04.605Z,100.00
2022-08-05T05:32:24.464Z,100.00
2022-08-05T05:34:59.017Z,100.00
2022-08-05T05:37:59.107Z,100.00
2022-08-05T05:40:26.435Z,100.00
2022-08-05T05:43:02.163Z,100.00
2022-08-05T05:45:36.920Z,100.00
2022-08-05T05:48:27.297Z,100.00
2022-08-05T05:51:13.024Z,100.00
2022-08-05T05:53:58.367Z,100.00
2022-08-05T05:56:34.836Z,100.00
2022-08-05T05:59:08.318Z,100.00
2022-08-05T06:01:57.122Z,100.00
2022-08-05T06:04:31.054Z,100.00
2022-08-05T06:07:04.241Z,100.00
2022-08-05T06:09:59.874Z,100.00
2022-08-05T06:12:31.222Z,100.00
2022-08-05T06:15:06.278Z,100.00
2022-08-05T06:17:52.665Z,100.00
2022-08-05T06:20:26.730Z,100.00
2022-08-05T06:23:01.819Z,100.00
2022-08-05T06:26:13.360Z,100.00
2022-08-05T06:28:30.077Z,100.00
2022-08-05T06:31:11.042Z,100.00
2022-08-05T06:34:08.025Z,100.00
2022-08-05T06:36:57.679Z,100.00
2022-08-05T06:39:31.979Z,100.00
2022-08-05T06:42:05.164Z,100.00
2022-08-05T06:44:38.138Z,100.00
2022-08-05T06:48:11.519Z,100.00
2022-08-05T06:50:06.971Z,100.00
2022-08-05T06:52:40.285Z,100.00
2022-08-05T06:55:13.577Z,100.00
2022-08-05T06:58:03.751Z,100.00
2022-08-05T07:00:41.323Z,100.00
2022-08-05T07:03:14.176Z,100.00
2022-08-05T07:05:51.135Z,100.00
2022-08-05T07:08:25.183Z,100.00
2022-08-05T07:10:58.465Z,100.00
2022-08-05T07:13:58.206Z,100.00
2022-08-05T07:18:02.125Z,100.00
2022-08-05T07:22:38.668Z,100.00
2022-08-05T07:25:54.969Z,100.00
2022-08-05T07:28:08.366Z,100.00
2022-08-05T07:30:44.844Z,100.00
2022-08-05T07:33:36.812Z,100.00
2022-08-05T07:36:21.150Z,100.00
2022-08-05T07:38:56.298Z,100.00
2022-08-05T07:42:13.506Z,100.00
2022-08-05T07:44:22.816Z,100.00
2022-08-05T07:46:55.699Z,100.00
2022-08-05T07:49:28.834Z,100.00
2022-08-05T07:52:01.887Z,100.00
2022-08-05T07:54:38.604Z,100.00
2022-08-05T07:57:41.919Z,100.00
2022-08-05T08:00:11.518Z,100.00
2022-08-05T08:03:14.807Z,100.00
2022-08-05T08:05:39.574Z,100.00
2022-08-05T08:08:13.457Z,100.00
2022-08-05T08:10:49.797Z,100.00
2022-08-05T08:13:29.421Z,100.00
2022-08-05T08:16:35.473Z,100.00
2022-08-05T08:18:55.535Z,100.00
2022-08-05T08:21:30.925Z,100.00
2022-08-05T08:24:05.266Z,100.00
2022-08-05T08:26:41.410Z,100.00
2022-08-05T08:29:29.479Z,100.00
2022-08-05T08:32:07.827Z,100.00
2022-08-05T08:34:44.898Z,100.00
2022-08-05T08:37:20.402Z,100.00
2022-08-05T08:40:00.738Z,100.00
2022-08-05T08:42:50.742Z,100.00
2022-08-05T08:45:27.053Z,100.00
2022-08-05T08:48:23.125Z,100.00
2022-08-05T08:51:07.650Z,100.00
2022-08-05T08:53:54.753Z,100.00
2022-08-05T08:56:28.022Z,100.00
2022-08-05T08:59:04.819Z,100.00
2022-08-05T09:01:57.081Z,100.00
2022-08-05T09:04:31.081Z,100.00
2022-08-05T09:07:04.614Z,100.00
2022-08-05T09:09:52.595Z,100.00
2022-08-05T09:12:27.235Z,100.00
2022-08-05T09:15:05.753Z,100.00
2022-08-05T09:17:43.128Z,100.00
2022-08-05T09:20:36.587Z,100.00
2022-08-05T09:23:19.518Z,100.00
2022-08-05T09:26:09.354Z,100.00
2022-08-05T09:28:42.538Z,100.00
2022-08-05T09:31:44.139Z,100.00
2022-08-05T09:34:13.034Z,100.00
2022-08-05T09:36:55.280Z,100.00
2022-08-05T09:39:45.865Z,100.00
2022-08-05T09:42:28.437Z,100.00
2022-08-05T09:46:05.036Z,100.00
2022-08-05T09:48:20.110Z,100.00
2022-08-05T09:50:56.338Z,100.00
2022-08-05T09:53:54.884Z,100.00
2022-08-05T09:56:27.565Z,100.00
2022-08-05T09:59:03.200Z,100.00
2022-08-05T10:01:40.435Z,100.00
2022-08-05T10:04:28.612Z,100.00
2022-08-05T10:07:06.142Z,100.00
2022-08-05T10:10:13.899Z,100.00
2022-08-05T10:12:51.399Z,100.00
2022-08-05T10:15:28.483Z,100.00
2022-08-05T10:18:09.625Z,100.00
2022-08-05T10:20:47.908Z,100.00
2022-08-05T10:23:55.352Z,100.00
2022-08-05T10:26:18.520Z,100.00
2022-08-05T10:28:53.062Z,100.00
2022-08-05T10:32:52.876Z,100.00
2022-08-05T10:34:25.883Z,100.00
2022-08-05T10:37:04.519Z,100.00
2022-08-05T10:39:59.153Z,100.00
2022-08-05T10:42:38.512Z,100.00
2022-08-05T10:45:24.070Z,100.00
2022-08-05T10:48:52.499Z,100.00
2022-08-05T10:51:28.899Z,100.00
2022-08-05T10:54:05.818Z,100.00
2022-08-05T10:56:57.258Z,100.00
2022-08-05T11:00:03.501Z,100.00
2022-08-05T11:02:37.475Z,100.00
2022-08-05T11:05:12.000Z,100.00
2022-08-05T11:08:02.593Z,100.00
2022-08-05T11:10:50.195Z,100.00
2022-08-05T11:13:55.005Z,100.00
2022-08-05T11:16:47.962Z,100.00
2022-08-05T11:20:10.030Z,100.00
2022-08-05T11:22:42.647Z,100.00
2022-08-05T11:26:04.903Z,100.00
2022-08-05T11:28:44.717Z,100.00
2022-08-05T11:31:57.801Z,100.00
2022-08-05T11:34:38.749Z,100.00
2022-08-05T11:38:26.164Z,100.00
2022-08-05T11:40:05.798Z,100.00
2022-08-05T11:42:42.251Z,100.00
2022-08-05T11:46:15.689Z,100.00
2022-08-05T11:48:12.245Z,100.00
2022-08-05T11:50:49.315Z,100.00
2022-08-05T11:53:23.144Z,100.00
2022-08-05T11:56:00.876Z,100.00
2022-08-05T11:58:36.780Z,100.00
2022-08-05T12:01:12.661Z,100.00
2022-08-05T12:03:55.544Z,100.00
2022-08-05T12:06:30.396Z,100.00
2022-08-05T12:09:05.778Z,100.00
2022-08-05T12:11:40.318Z,100.00
2022-08-05T12:14:14.835Z,100.00
2022-08-05T12:16:56.506Z,100.00
2022-08-05T12:20:26.825Z,100.00
2022-08-05T12:22:29.490Z,100.00
2022-08-05T12:25:06.408Z,100.00
2022-08-05T12:27:53.133Z,100.00
2022-08-05T12:30:29.097Z,100.00
2022-08-05T12:33:27.802Z,100.00
2022-08-05T12:36:02.070Z,100.00
2022-08-05T12:38:35.898Z,100.00
2022-08-05T12:41:13.170Z,100.00
2022-08-05T12:43:52.062Z,100.00
2022-08-05T12:46:29.031Z,100.00
2022-08-05T12:49:13.780Z,100.00
2022-08-05T12:52:13.552Z,100.00
2022-08-05T12:54:42.919Z,100.00
2022-08-05T12:57:16.709Z,100.00
2022-08-05T13:02:03.861Z,100.00
2022-08-05T13:02:47.121Z,100.00
2022-08-05T13:05:21.925Z,100.00
2022-08-05T13:07:59.805Z,100.00
2022-08-05T13:10:33.960Z,100.00
2022-08-05T13:13:08.815Z,100.00
2022-08-05T13:15:50.886Z,100.00
2022-08-05T13:18:24.205Z,100.00
2022-08-05T13:20:58.688Z,100.00
2022-08-05T13:23:31.676Z,100.00
2022-08-05T13:26:07.573Z,100.00
2022-08-05T13:28:44.360Z,100.00
2022-08-05T13:31:17.392Z,100.00
2022-08-05T13:34:22.502Z,100.00
2022-08-05T13:37:00.507Z,100.00
2022-08-05T13:40:13.859Z,100.00
2022-08-05T13:42:27.493Z,100.00
2022-08-05T13:45:01.698Z,100.00
2022-08-05T13:48:08.958Z,100.00
2022-08-05T13:50:28.443Z,100.00
2022-08-05T13:53:03.096Z,100.00
2022-08-05T13:55:49.287Z,98.70
2022-08-05T13:58:30.619Z,98.17
2022-08-05T14:01:05.172Z,97.73
2022-08-05T14:03:40.621Z,98.51
2022-08-05T14:06:26.154Z,96.79
2022-08-05T14:09:01.818Z,96.00
2022-08-05T14:12:04.267Z,92.82
2022-08-05T14:14:34.551Z,94.24
2022-08-05T14:17:07.540Z,95.62
2022-08-05T14:19:54.559Z,95.88
2022-08-05T14:22:30.325Z,96.67
2022-08-05T14:25:06.357Z,96.62
2022-08-05T14:27:54.341Z,97.11
2022-08-05T14:30:28.399Z,97.02
2022-08-05T14:33:04.670Z,97.35
2022-08-05T14:35:51.357Z,97.26
2022-08-05T14:38:31.859Z,96.81
2022-08-05T14:41:08.236Z,94.51
2022-08-05T14:44:02.221Z,95.92
2022-08-05T14:46:35.168Z,96.43
2022-08-05T14:49:08.460Z,96.72
2022-08-05T14:51:42.406Z,93.72
2022-08-05T14:54:28.559Z,94.90
2022-08-05T14:57:05.336Z,94.30
2022-08-05T14:59:42.753Z,94.25
2022-08-05T15:02:16.281Z,91.58
2022-08-05T15:04:49.876Z,90.66
2022-08-05T15:08:12.435Z,91.20
2022-08-05T15:10:15.839Z,90.94
2022-08-05T15:13:01.156Z,91.88
2022-08-05T15:15:55.984Z,91.02
2022-08-05T15:18:29.425Z,91.16
2022-08-05T15:21:07.622Z,91.70
2022-08-05T15:23:41.065Z,91.63
2022-08-05T15:26:15.447Z,91.15
2022-08-05T15:29:06.641Z,89.86
2022-08-05T15:31:40.635Z,88.90
2022-08-05T15:34:32.076Z,90.90
2022-08-05T15:37:15.518Z,89.86
2022-08-05T15:41:04.090Z,90.87
2022-08-05T15:42:55.250Z,94.68
2022-08-05T15:45:38.268Z,100.00
2022-08-05T15:48:13.976Z,100.00
2022-08-05T15:50:47.891Z,100.00
2022-08-05T15:53:21.362Z,100.00
2022-08-05T15:56:03.887Z,100.00
2022-08-05T15:58:37.932Z,100.00
2022-08-05T16:01:17.346Z,100.00
2022-08-05T16:03:51.222Z,100.00
2022-08-05T16:06:24.864Z,100.00
2022-08-05T16:08:57.931Z,100.00
2022-08-05T16:11:42.713Z,100.00
2022-08-05T16:14:17.248Z,100.00
2022-08-05T16:16:52.176Z,100.00
2022-08-05T16:20:05.575Z,100.00
2022-08-05T16:22:19.164Z,100.00
2022-08-05T16:25:00.637Z,100.00
2022-08-05T16:28:00.134Z,100.00
2022-08-05T16:30:36.177Z,100.00
2022-08-05T16:33:10.719Z,100.00
2022-08-05T16:35:44.662Z,100.00
2022-08-05T16:38:25.638Z,100.00
2022-08-05T16:41:02.274Z,100.00
2022-08-05T16:43:56.307Z,97.76
2022-08-05T16:46:29.786Z,94.56
2022-08-05T16:49:07.493Z,90.38
2022-08-05T16:51:50.178Z,92.29
2022-08-05T16:54:28.942Z,91.06
2022-08-05T16:57:06.737Z,91.45
2022-08-05T17:00:03.103Z,88.88
2022-08-05T17:02:40.700Z,87.25
2022-08-05T17:05:15.245Z,87.84
2022-08-05T17:07:54.711Z,90.34
2022-08-05T17:10:30.529Z,91.31
2022-08-05T17:13:03.787Z,90.81
2022-08-05T17:15:47.909Z,91.65
2022-08-05T17:18:22.652Z,93.58
2022-08-05T17:20:57.046Z,93.94
2022-08-05T17:24:05.510Z,95.20
2022-08-05T17:26:23.360Z,94.88
2022-08-05T17:28:56.445Z,94.68
2022-08-05T17:31:41.243Z,94.04
2022-08-05T17:34:29.780Z,91.69
2022-08-05T17:37:39.288Z,92.29
2022-08-05T17:40:00.251Z,89.96
2022-08-05T17:42:33.524Z,88.93
2022-08-05T17:45:09.945Z,89.13
2022-08-05T17:47:56.275Z,89.54
2022-08-05T17:50:33.146Z,88.72
2022-08-05T17:53:08.430Z,87.46
2022-08-05T17:55:42.032Z,88.31
2022-08-05T17:58:16.453Z,87.56
2022-08-05T18:00:54.397Z,86.73
2022-08-05T18:06:29.299Z,86.45
2022-08-05T18:09:05.501Z,86.33
2022-08-05T18:11:42.481Z,85.40
2022-08-05T18:14:20.750Z,86.60
2022-08-05T18:16:53.758Z,85.99
2022-08-05T18:19:26.793Z,85.70
2022-08-05T18:22:08.499Z,85.12
2022-08-05T18:24:45.594Z,85.77
2022-08-05T18:27:19.159Z,84.53
2022-08-05T18:29:54.803Z,82.62
2022-08-05T18:32:29.567Z,83.69
2022-08-05T18:35:02.919Z,82.47
2022-08-05T18:37:40.235Z,81.43
2022-08-05T18:41:50.332Z,79.65
2022-08-05T18:43:09.187Z,79.37
2022-08-05T18:45:49.640Z,80.20
2022-08-05T18:48:31.252Z,80.82
2022-08-05T18:52:03.317Z,80.57
2022-08-05T18:54:16.939Z,80.06
2022-08-05T18:56:52.186Z,79.82
2022-08-05T18:59:42.967Z,80.38
2022-08-05T19:02:26.728Z,79.08
2022-08-05T19:06:05.291Z,78.70
2022-08-05T19:07:56.232Z,80.15
2022-08-05T19:10:31.417Z,80.84
2022-08-05T19:13:05.970Z,81.75
2022-08-05T19:15:59.323Z,81.17
2022-08-05T19:18:33.736Z,81.72
2022-08-05T19:21:07.656Z,83.50
2022-08-05T19:24:07.341Z,83.62
2022-08-05T19:26:33.749Z,83.00
2022-08-05T19:29:08.089Z,82.90
2022-08-05T19:31:44.732Z,83.24
2022-08-05T19:34:23.944Z,84.24
2022-08-05T19:36:56.959Z,84.40
2022-08-05T19:39:30.584Z,84.00
2022-08-05T19:42:07.831Z,83.95
2022-08-05T19:44:45.016Z,84.00
2022-08-05T19:47:19.801Z,84.06
2022-08-05T19:49:57.362Z,85.56
2022-08-05T19:52:40.475Z,84.85
2022-08-05T19:56:14.122Z,84.66
2022-08-05T19:58:28.639Z,84.89
2022-08-05T20:01:01.959Z,85.03
2022-08-05T20:03:40.643Z,85.29
2022-08-05T20:06:15.910Z,85.74
2022-08-05T20:09:06.074Z,86.77
2022-08-05T20:11:48.051Z,87.10
2022-08-05T20:14:27.138Z,87.09
2022-08-05T20:17:04.838Z,87.40
2022-08-05T20:19:41.447Z,87.55
2022-08-05T20:22:15.196Z,88.09
2022-08-05T20:24:48.071Z,88.75
2022-08-05T20:27:23.169Z,90.39
2022-08-05T20:30:02.085Z,90.88
2022-08-05T20:32:36.953Z,91.37
2022-08-05T20:35:18.344Z,91.58
2022-08-05T20:38:06.331Z,91.95
2022-08-05T20:40:43.136Z,92.84
2022-08-05T20:43:16.270Z,93.63
2022-08-05T20:45:57.011Z,94.08
2022-08-05T20:48:36.631Z,95.98
2022-08-05T20:51:10.024Z,96.76
2022-08-05T20:53:43.166Z,96.96
2022-08-05T20:56:34.161Z,98.20
2022-08-05T20:59:26.489Z,99.10
2022-08-05T21:02:00.261Z,99.22
2022-08-05T21:04:34.787Z,99.87
2022-08-05T21:07:10.573Z,100.00
2022-08-05T21:09:50.148Z,100.00
2022-08-05T21:12:26.598Z,100.00
2022-08-05T21:14:59.874Z,100.00
2022-08-05T21:17:32.754Z,100.00
2022-08-05T21:20:09.985Z,100.00
2022-08-05T21:22:43.326Z,100.00
2022-08-05T21:25:16.635Z,100.00
2022-08-05T21:27:52.671Z,100.00
2022-08-05T21:30:26.125Z,100.00
2022-08-05T21:32:59.746Z,100.00
2022-08-05T21:35:55.378Z,100.00
2022-08-05T21:38:29.143Z,100.00
2022-08-05T21:41:02.352Z,100.00
2022-08-05T21:43:41.432Z,100.00
2022-08-05T21:46:14.880Z,100.00
2022-08-05T21:48:50.912Z,100.00
2022-08-05T21:52:22.133Z,100.00
2022-08-05T21:54:27.886Z,100.00
2022-08-05T21:57:29.644Z,100.00
2022-08-05T22:00:06.227Z,100.00
2022-08-05T22:02:40.247Z,100.00
2022-08-05T22:05:15.131Z,100.00
2022-08-05T22:07:59.134Z,100.00
2022-08-05T22:10:35.291Z,100.00
2022-08-05T22:14:05.247Z,100.00
2022-08-05T22:16:15.373Z,100.00
2022-08-05T22:18:54.632Z,100.00
2022-08-05T22:21:31.908Z,100.00
2022-08-05T22:24:40.895Z,100.00
2022-08-05T22:28:11.308Z,100.00
2022-08-05T22:30:38.315Z,100.00
2022-08-05T22:33:56.524Z,99.35
2022-08-05T22:36:24.100Z,99.26
2022-08-05T22:38:57.656Z,99.10
2022-08-05T22:42:11.835Z,97.93
2022-08-05T22:44:37.040Z,98.96
2022-08-05T22:47:11.201Z,99.16
2022-08-05T22:50:23.190Z,99.23
2022-08-05T22:52:39.911Z,99.33
2022-08-05T22:55:19.230Z,99.65
2022-08-05T22:57:55.676Z,98.59
2022-08-05T23:00:31.335Z,99.43
2022-08-05T23:03:04.567Z,98.55
2022-08-05T23:05:37.710Z,98.47
2022-08-05T23:08:12.324Z,98.07
2022-08-05T23:10:55.913Z,98.65
2022-08-05T23:13:30.364Z,97.99
2022-08-05T23:16:03.456Z,98.08
2022-08-05T23:18:36.723Z,98.72
2022-08-05T23:21:11.608Z,99.31
2022-08-05T23:23:49.448Z,99.33
2022-08-05T23:26:22.447Z,99.19
2022-08-05T23:29:02.093Z,99.06
2022-08-05T23:31:37.573Z,99.51
2022-08-05T23:34:10.486Z,99.66
2022-08-05T23:36:44.602Z,99.68
2022-08-05T23:39:32.275Z,99.83
2022-08-05T23:42:14.200Z,100.00
2022-08-05T23:44:54.432Z,99.36
2022-08-05T23:47:27.722Z,99.98
2022-08-05T23:50:09.317Z,99.72
2022-08-05T23:52:49.553Z,100.00
2022-08-05T23:55:24.616Z,100.00
2022-08-05T23:58:04.598Z,100.00
